Buckley Hill, United Kingdom
Current Conditions -  °F | °C
As of 9:50 PM on Thursday 18 Dec 2014 (Local Time) from EGGP Reporting Station
Rain Showers Rain Showers  
Wind Chill: 50°   Ceiling: 1200
Heat Index: 50°   Visibility: 4mi
Dew Point: 48°   Wind: 14mph
Humidity: 94%   Direction: 290°WNW
Pressure: 29.65"   Gusts: NA
Location:  53.48°N, 2.99°W
Report Text: EGGP 182150Z 29012KT 7000 -SHRA FEW006 BKN012 10/09 Q1004
Loading
Personal Weather Stations






























Interactive Weather Map New forecast layout! Learn more

10-Day Weather Forecast

Advertisements
Track Severe Weather on mobile